首页
METAR-TAF:

METAR-TAF

机场 :

Providenciales, 特克斯和凯科斯群岛

普羅維登西亞萊斯國際機場

纬度: 21-46-25N, 经度: 072-15-57W, 海拔: 5米

当前天气观测

该预报发布于13分钟前的14:00 UTC
风速9节,风向南转南东
温度 28°C
湿度 70%
气压 1016 hPa
能见度10公里或以上
散云层高于1500英尺

METAR: MBPV 241400Z 15009KT 9999 SCT015 28/22 Q1016

时间: 10:13 (14:13 UTC)

预报

该预报发布于4小时和43分钟前的09:30 UTC
预报有效从24日的 12点(UTC)到 25日的 12点(UTC)
风速12节,风向东转东南
能见度10公里或以上
散云层高于2000英尺

TAF: MBPV 240930Z 2412/2512 11012KT 9999 SCT020

超过4000个机场的气象观测和天气预报(METAR&TAF报告)。

可查询的气象台以黄色和红色小点在地图上表示。

将鼠标移到小点上方,可查看气象台名称。

然后点击查看天气观测和预报。

如需切换地图:点击带黑十字的绿色按钮放大地图;点击带横线的绿色按钮缩小地图;或者点击绿色箭头查看邻近地区的地图。


METAR-TAF: